Rotterdam, Netherlands

12:09 AM CET on January 29, 2015 (GMT +0100)
Rotterdam | Change Station
CLOSE
Current Station
Airport
Location: Rotterdam,
Elevation: -16 ft
Nearby Weather Stations
Active Advisory: Wind nederlands:

Elev -16 ft 51.95 °N, 4.44 °E | Updated 14 minutes ago

Mostly Cloudy
Mostly Cloudy
39 °F
Feels Like 29 °F
N
22
Wind Variable Wind from West

Today
High -- | Low -- °F
--% Chance of Precip.
Yesterday
High -- | Low -- °F
Precip. -- in
8:27 AM 5:24 PM
Waxing Gibbous, 68% visible
Pressure 29.42 in
Visibility 6.2 miles
Clouds Scattered Clouds 3600 ft
Mostly Cloudy 4800 ft
Windchill 29 °F
Dew Point 28 °F
Humidity 65%
Rainfall 0.00 in
Snow Depth Not available.
UV 0 out of 12
Pollen Not available.
Air Quality Not available.
Flu Activity Not available.
METAR EHRD 282255Z AUTO 26019KT 230V300 9999 SCT036 BKN048 04/M02 Q0996 NOSIG

More Conditions Fewer Conditions

Pressure 29.42 in
Visibility 6.2 miles
Clouds Scattered Clouds 3600 ft
Mostly Cloudy 4800 ft
Windchill 29 °F
Dew Point 28 °F
Humidity 65%
Rainfall 0.00 in
Snow Depth Not available.
UV 0 out of 12
Pollen Not available.
Air Quality Not available.
Flu Activity Not available.
METAR EHRD 282255Z AUTO 26019KT 230V300 9999 SCT036 BKN048 04/M02 Q0996 NOSIG

More Conditions Fewer Conditions

10-Day Weather Forecast

Almanac

Astronomy

Jan. 29, 2015 Rise Set
Actual Time
Civil Twilight
Nautical Twilight
Astronomical Twilight
Moon
Length of Visible Light
Length of Day
Tomorrow will be .
, % of the Moon is Illuminated

Today's Extremes

Country Highs Country Lows

Community

WunderPhotos

Upload Photos

1,791,292 photos uploaded!

WunderBlogs® & News

Nearby

Air Quality

  Air Quality AQ Index Pollutant
Not available.

Snow Depth

Station Depth Elevation

Earthquake Activity

City Distance Mag. Time & Date
Minimum magnitude displayed is 2.5.

Coastal Water Temperatures

Place Temperature

Nearby Weather Stations